sensor_id;sensor_type;location;lat;lon;timestamp;pressure;altitude;pressure_sealevel;temperature;humidity
82986;BME280;72786;53.546;9.910;2024-01-11T00:01:48;102796.66;;;-0.40;90.31
82986;BME280;72786;53.546;9.910;2024-01-11T00:04:15;102801.59;;;-0.30;90.10
82986;BME280;72786;53.546;9.910;2024-01-11T00:06:42;102724.94;;;-0.66;90.30
82986;BME280;72786;53.546;9.910;2024-01-11T00:09:09;102774.72;;;-0.35;90.72
82986;BME280;72786;53.546;9.910;2024-01-11T00:11:36;102801.28;;;-0.22;89.96
82986;BME280;72786;53.546;9.910;2024-01-11T00:14:03;102712.19;;;-0.62;90.13
82986;BME280;72786;53.546;9.910;2024-01-11T00:16:29;102779.66;;;-0.11;90.15
82986;BME280;72786;53.546;9.910;2024-01-11T00:18:55;102760.06;;;-0.17;90.04
82986;BME280;72786;53.546;9.910;2024-01-11T00:21:22;102752.00;;;-0.20;89.86
82986;BME280;72786;53.546;9.910;2024-01-11T00:23:49;102706.63;;;-0.50;90.44
82986;BME280;72786;53.546;9.910;2024-01-11T00:26:16;102699.56;;;-0.47;90.42
82986;BME280;72786;53.546;9.910;2024-01-11T00:28:42;102727.03;;;-0.34;90.38
82986;BME280;72786;53.546;9.910;2024-01-11T00:31:09;102752.66;;;-0.21;90.35
82986;BME280;72786;53.546;9.910;2024-01-11T00:33:35;102667.03;;;-0.61;90.65
82986;BME280;72786;53.546;9.910;2024-01-11T00:36:03;102719.41;;;-0.39;90.75
82986;BME280;72786;53.546;9.910;2024-01-11T00:38:29;102694.84;;;-0.40;90.53
82986;BME280;72786;53.546;9.910;2024-01-11T00:40:56;102704.75;;;-0.36;90.25
82986;BME280;72786;53.546;9.910;2024-01-11T00:43:22;102695.00;;;-0.59;91.02
82986;BME280;72786;53.546;9.910;2024-01-11T00:45:49;102718.31;;;-0.51;91.07
82986;BME280;72786;53.546;9.910;2024-01-11T00:48:15;102698.91;;;-0.61;90.24
82986;BME280;72786;53.546;9.910;2024-01-11T00:50:42;102708.31;;;-0.60;90.91
82986;BME280;72786;53.546;9.910;2024-01-11T00:53:08;102655.03;;;-0.82;90.85
82986;BME280;72786;53.546;9.910;2024-01-11T00:55:35;102656.72;;;-0.92;91.04
82986;BME280;72786;53.546;9.910;2024-01-11T00:58:02;102730.75;;;-0.47;91.10
82986;BME280;72786;53.546;9.910;2024-01-11T01:00:28;102670.84;;;-0.68;91.24
82986;BME280;72786;53.546;9.910;2024-01-11T01:02:55;102644.25;;;-0.81;91.28
82986;BME280;72786;53.546;9.910;2024-01-11T01:05:21;102707.19;;;-0.27;91.21
82986;BME280;72786;53.546;9.910;2024-01-11T01:07:48;102697.09;;;-0.27;90.75
82986;BME280;72786;53.546;9.910;2024-01-11T01:10:14;102627.44;;;-0.56;90.84
82986;BME280;72786;53.546;9.910;2024-01-11T01:12:40;102696.66;;;-0.24;91.03
82986;BME280;72786;53.546;9.910;2024-01-11T01:15:07;102690.63;;;-0.30;91.47
82986;BME280;72786;53.546;9.910;2024-01-11T01:17:33;102647.63;;;-0.56;91.13
82986;BME280;72786;53.546;9.910;2024-01-11T01:20:00;102668.59;;;-0.31;90.53
82986;BME280;72786;53.546;9.910;2024-01-11T01:22:27;102639.81;;;-0.58;90.63
82986;BME280;72786;53.546;9.910;2024-01-11T01:24:53;102599.66;;;-0.77;90.59
82986;BME280;72786;53.546;9.910;2024-01-11T01:27:20;102653.53;;;-0.61;90.62
82986;BME280;72786;53.546;9.910;2024-01-11T01:29:46;102677.25;;;-0.35;91.00
82986;BME280;72786;53.546;9.910;2024-01-11T01:32:13;102667.25;;;-0.44;90.82
82986;BME280;72786;53.546;9.910;2024-01-11T01:34:39;102685.88;;;-0.44;91.45
82986;BME280;72786;53.546;9.910;2024-01-11T01:37:05;102665.38;;;-0.66;91.33
82986;BME280;72786;53.546;9.910;2024-01-11T01:39:32;102576.50;;;-1.24;91.24
82986;BME280;72786;53.546;9.910;2024-01-11T01:41:59;102708.13;;;-0.56;91.77
82986;BME280;72786;53.546;9.910;2024-01-11T01:44:25;102628.47;;;-0.95;91.66
82986;BME280;72786;53.546;9.910;2024-01-11T01:46:52;102693.75;;;-0.37;91.80
82986;BME280;72786;53.546;9.910;2024-01-11T01:49:18;102688.53;;;-0.48;91.40
82986;BME280;72786;53.546;9.910;2024-01-11T01:51:49;102679.22;;;-0.43;91.33
82986;BME280;72786;53.546;9.910;2024-01-11T01:54:17;102620.66;;;-0.81;91.61
82986;BME280;72786;53.546;9.910;2024-01-11T01:56:45;102673.34;;;-0.53;91.16
82986;BME280;72786;53.546;9.910;2024-01-11T01:59:12;102678.75;;;-0.61;91.92
82986;BME280;72786;53.546;9.910;2024-01-11T02:01:39;102686.63;;;-0.54;91.82
82986;BME280;72786;53.546;9.910;2024-01-11T02:04:06;102687.53;;;-0.54;92.06
82986;BME280;72786;53.546;9.910;2024-01-11T02:06:33;102709.38;;;-0.49;92.03
82986;BME280;72786;53.546;9.910;2024-01-11T02:09:01;102657.22;;;-0.89;92.20
82986;BME280;72786;53.546;9.910;2024-01-11T02:11:31;102732.16;;;-0.43;92.09
82986;BME280;72786;53.546;9.910;2024-01-11T02:13:58;102670.50;;;-0.75;92.28
82986;BME280;72786;53.546;9.910;2024-01-11T02:16:25;102716.38;;;-0.57;92.37
82986;BME280;72786;53.546;9.910;2024-01-11T02:18:52;102741.81;;;-0.41;92.07
82986;BME280;72786;53.546;9.910;2024-01-11T02:21:18;102727.63;;;-0.55;92.37
82986;BME280;72786;53.546;9.910;2024-01-11T02:24:03;102668.81;;;-0.80;92.06
82986;BME280;72786;53.546;9.910;2024-01-11T02:26:30;102660.66;;;-0.88;92.43
82986;BME280;72786;53.546;9.910;2024-01-11T02:28:57;102709.81;;;-0.51;92.58
82986;BME280;72786;53.546;9.910;2024-01-11T02:31:24;102730.97;;;-0.45;92.34
82986;BME280;72786;53.546;9.910;2024-01-11T02:33:54;102678.78;;;-0.71;93.13
82986;BME280;72786;53.546;9.910;2024-01-11T02:36:21;102681.94;;;-0.62;92.35
82986;BME280;72786;53.546;9.910;2024-01-11T02:38:48;102680.06;;;-0.63;92.07
82986;BME280;72786;53.546;9.910;2024-01-11T02:41:18;102732.25;;;-0.38;91.61
82986;BME280;72786;53.546;9.910;2024-01-11T02:43:46;102733.16;;;-0.37;92.18
82986;BME280;72786;53.546;9.910;2024-01-11T02:46:14;102717.03;;;-0.43;92.44
82986;BME280;72786;53.546;9.910;2024-01-11T02:48:41;102694.00;;;-0.50;91.68
82986;BME280;72786;53.546;9.910;2024-01-11T02:51:08;102706.59;;;-0.35;91.63
82986;BME280;72786;53.546;9.910;2024-01-11T02:53:34;102664.75;;;-0.44;91.34
82986;BME280;72786;53.546;9.910;2024-01-11T02:56:01;102712.53;;;-0.20;91.88
82986;BME280;72786;53.546;9.910;2024-01-11T02:58:29;102669.13;;;-0.43;91.14
82986;BME280;72786;53.546;9.910;2024-01-11T03:00:55;102665.59;;;-0.49;92.10
82986;BME280;72786;53.546;9.910;2024-01-11T03:03:22;102710.53;;;-0.17;91.79
82986;BME280;72786;53.546;9.910;2024-01-11T03:05:48;102725.56;;;-0.07;91.83
82986;BME280;72786;53.546;9.910;2024-01-11T03:08:15;102690.38;;;-0.32;91.51
82986;BME280;72786;53.546;9.910;2024-01-11T03:10:41;102718.91;;;-0.07;91.29
82986;BME280;72786;53.546;9.910;2024-01-11T03:13:08;102718.66;;;-0.08;91.30
82986;BME280;72786;53.546;9.910;2024-01-11T03:15:34;102711.53;;;-0.11;91.40
82986;BME280;72786;53.546;9.910;2024-01-11T03:18:00;102677.75;;;-0.32;91.25
82986;BME280;72786;53.546;9.910;2024-01-11T03:20:27;102670.53;;;-0.40;91.96
82986;BME280;72786;53.546;9.910;2024-01-11T03:22:54;102722.69;;;0.00;91.92
82986;BME280;72786;53.546;9.910;2024-01-11T03:25:21;102669.19;;;-0.23;91.15
82986;BME280;72786;53.546;9.910;2024-01-11T03:27:47;102659.19;;;-0.32;91.82
82986;BME280;72786;53.546;9.910;2024-01-11T03:30:14;102697.69;;;-0.18;92.35
82986;BME280;72786;53.546;9.910;2024-01-11T03:32:41;102704.56;;;-0.17;92.01
82986;BME280;72786;53.546;9.910;2024-01-11T03:35:08;102719.94;;;-0.01;92.68
82986;BME280;72786;53.546;9.910;2024-01-11T03:37:35;102703.78;;;-0.07;91.81
82986;BME280;72786;53.546;9.910;2024-01-11T03:40:02;102698.84;;;-0.16;92.19
82986;BME280;72786;53.546;9.910;2024-01-11T03:42:29;102653.88;;;-0.34;92.10
82986;BME280;72786;53.546;9.910;2024-01-11T03:44:56;102723.69;;;0.06;91.94
82986;BME280;72786;53.546;9.910;2024-01-11T03:47:22;102705.56;;;-0.11;91.98
82986;BME280;72786;53.546;9.910;2024-01-11T03:49:49;102732.28;;;-0.03;92.03
82986;BME280;72786;53.546;9.910;2024-01-11T03:52:15;102661.91;;;-0.51;92.16
82986;BME280;72786;53.546;9.910;2024-01-11T03:54:42;102692.06;;;-0.42;92.02
82986;BME280;72786;53.546;9.910;2024-01-11T03:57:08;102711.88;;;-0.19;92.21
82986;BME280;72786;53.546;9.910;2024-01-11T03:59:35;102684.03;;;-0.24;91.38
82986;BME280;72786;53.546;9.910;2024-01-11T04:02:01;102675.13;;;-0.22;91.59
82986;BME280;72786;53.546;9.910;2024-01-11T04:04:28;102713.59;;;0.06;91.55
82986;BME280;72786;53.546;9.910;2024-01-11T04:06:54;102675.41;;;-0.01;91.58
82986;BME280;72786;53.546;9.910;2024-01-11T04:09:21;102645.50;;;-0.08;91.13
82986;BME280;72786;53.546;9.910;2024-01-11T04:11:47;102712.44;;;0.25;91.38
82986;BME280;72786;53.546;9.910;2024-01-11T04:14:14;102686.44;;;0.20;91.40
82986;BME280;72786;53.546;9.910;2024-01-11T04:16:41;102682.94;;;0.14;91.65
82986;BME280;72786;53.546;9.910;2024-01-11T04:19:08;102664.69;;;-0.14;91.95
82986;BME280;72786;53.546;9.910;2024-01-11T04:21:35;102556.22;;;-0.70;92.35
82986;BME280;72786;53.546;9.910;2024-01-11T04:24:05;102670.22;;;0.03;92.46
82986;BME280;72786;53.546;9.910;2024-01-11T04:26:34;102578.41;;;-0.38;92.66
82986;BME280;72786;53.546;9.910;2024-01-11T04:29:01;102665.63;;;0.06;91.84
82986;BME280;72786;53.546;9.910;2024-01-11T04:31:27;102586.53;;;-0.29;91.76
82986;BME280;72786;53.546;9.910;2024-01-11T04:33:54;102591.56;;;-0.29;91.59
82986;BME280;72786;53.546;9.910;2024-01-11T04:36:20;102663.03;;;0.01;92.56
82986;BME280;72786;53.546;9.910;2024-01-11T04:38:47;102664.72;;;0.06;91.97
82986;BME280;72786;53.546;9.910;2024-01-11T04:41:14;102627.81;;;-0.08;92.01
82986;BME280;72786;53.546;9.910;2024-01-11T04:43:43;102572.41;;;-0.38;91.20
82986;BME280;72786;53.546;9.910;2024-01-11T04:46:17;102644.47;;;0.00;91.57
82986;BME280;72786;53.546;9.910;2024-01-11T04:48:44;102654.34;;;0.04;91.89
82986;BME280;72786;53.546;9.910;2024-01-11T04:51:12;102648.16;;;0.02;91.61
82986;BME280;72786;53.546;9.910;2024-01-11T04:53:40;102619.03;;;0.04;91.55
82986;BME280;72786;53.546;9.910;2024-01-11T04:56:08;102630.00;;;0.20;91.80
82986;BME280;72786;53.546;9.910;2024-01-11T04:58:36;102603.56;;;0.18;91.66
82986;BME280;72786;53.546;9.910;2024-01-11T05:01:05;102608.94;;;0.04;91.26
82986;BME280;72786;53.546;9.910;2024-01-11T05:03:32;102639.53;;;0.11;91.29
82986;BME280;72786;53.546;9.910;2024-01-11T05:05:59;102660.13;;;0.03;91.41
82986;BME280;72786;53.546;9.910;2024-01-11T05:08:26;102678.88;;;0.20;90.77
82986;BME280;72786;53.546;9.910;2024-01-11T05:10:54;102640.91;;;0.09;90.75
82986;BME280;72786;53.546;9.910;2024-01-11T05:13:22;102662.69;;;0.09;90.82
82986;BME280;72786;53.546;9.910;2024-01-11T05:15:49;102586.44;;;-0.35;90.74
82986;BME280;72786;53.546;9.910;2024-01-11T05:18:15;102664.97;;;0.07;90.87
82986;BME280;72786;53.546;9.910;2024-01-11T05:20:42;102661.88;;;-0.01;90.93
82986;BME280;72786;53.546;9.910;2024-01-11T05:23:08;102594.97;;;-0.34;91.32
82986;BME280;72786;53.546;9.910;2024-01-11T05:25:35;102662.28;;;-0.03;91.51
82986;BME280;72786;53.546;9.910;2024-01-11T05:28:02;102646.06;;;0.00;91.37
82986;BME280;72786;53.546;9.910;2024-01-11T05:30:29;102652.03;;;0.00;91.40
82986;BME280;72786;53.546;9.910;2024-01-11T05:32:56;102664.53;;;0.10;91.45
82986;BME280;72786;53.546;9.910;2024-01-11T05:35:23;102659.03;;;0.12;90.87
82986;BME280;72786;53.546;9.910;2024-01-11T05:37:50;102663.63;;;0.09;91.20
82986;BME280;72786;53.546;9.910;2024-01-11T05:40:17;102671.66;;;0.12;91.28
82986;BME280;72786;53.546;9.910;2024-01-11T05:42:43;102667.13;;;0.15;91.05
82986;BME280;72786;53.546;9.910;2024-01-11T05:45:09;102639.03;;;-0.12;91.45
82986;BME280;72786;53.546;9.910;2024-01-11T05:47:36;102672.78;;;0.09;92.04
82986;BME280;72786;53.546;9.910;2024-01-11T05:50:03;102556.97;;;-0.45;91.79
82986;BME280;72786;53.546;9.910;2024-01-11T05:52:31;102665.59;;;0.21;91.95
82986;BME280;72786;53.546;9.910;2024-01-11T05:54:58;102672.72;;;0.24;92.11
82986;BME280;72786;53.546;9.910;2024-01-11T05:57:24;102556.94;;;-0.30;91.93
82986;BME280;72786;53.546;9.910;2024-01-11T05:59:51;102610.25;;;-0.03;92.38
82986;BME280;72786;53.546;9.910;2024-01-11T06:02:17;102625.09;;;0.10;92.19
82986;BME280;72786;53.546;9.910;2024-01-11T06:04:43;102667.91;;;0.25;92.42
82986;BME280;72786;53.546;9.910;2024-01-11T06:07:13;102634.69;;;0.07;92.38
82986;BME280;72786;53.546;9.910;2024-01-11T06:09:40;102624.66;;;0.13;92.31
82986;BME280;72786;53.546;9.910;2024-01-11T06:12:07;102596.63;;;0.11;92.39
82986;BME280;72786;53.546;9.910;2024-01-11T06:14:33;102606.47;;;0.10;92.56
82986;BME280;72786;53.546;9.910;2024-01-11T06:17:00;102586.41;;;0.00;92.41
82986;BME280;72786;53.546;9.910;2024-01-11T06:19:26;102590.16;;;0.08;92.44
82986;BME280;72786;53.546;9.910;2024-01-11T06:21:53;102581.72;;;-0.07;92.50
82986;BME280;72786;53.546;9.910;2024-01-11T06:24:19;102550.84;;;-0.21;92.66
82986;BME280;72786;53.546;9.910;2024-01-11T06:26:45;102617.09;;;0.18;93.15
82986;BME280;72786;53.546;9.910;2024-01-11T06:29:12;102596.13;;;0.08;93.21
82986;BME280;72786;53.546;9.910;2024-01-11T06:31:38;102626.31;;;0.18;92.99
82986;BME280;72786;53.546;9.910;2024-01-11T06:34:05;102625.28;;;0.32;92.67
82986;BME280;72786;53.546;9.910;2024-01-11T06:36:32;102633.59;;;0.37;93.33
82986;BME280;72786;53.546;9.910;2024-01-11T06:38:58;102601.97;;;0.18;92.69
82986;BME280;72786;53.546;9.910;2024-01-11T06:41:24;102590.56;;;0.00;93.23
82986;BME280;72786;53.546;9.910;2024-01-11T06:43:51;102594.72;;;0.05;93.14
82986;BME280;72786;53.546;9.910;2024-01-11T06:46:21;102610.53;;;0.24;93.04
82986;BME280;72786;53.546;9.910;2024-01-11T06:48:48;102631.03;;;0.31;93.48
82986;BME280;72786;53.546;9.910;2024-01-11T06:51:16;102571.63;;;-0.07;93.99
82986;BME280;72786;53.546;9.910;2024-01-11T06:53:46;102651.53;;;0.38;93.45
82986;BME280;72786;53.546;9.910;2024-01-11T06:56:17;102595.94;;;0.12;93.44
82986;BME280;72786;53.546;9.910;2024-01-11T06:58:45;102630.63;;;0.39;93.54
82986;BME280;72786;53.546;9.910;2024-01-11T07:01:12;102582.19;;;0.10;93.58
82986;BME280;72786;53.546;9.910;2024-01-11T07:03:39;102566.31;;;0.11;93.71
82986;BME280;72786;53.546;9.910;2024-01-11T07:06:06;102602.16;;;0.35;93.23
82986;BME280;72786;53.546;9.910;2024-01-11T07:08:33;102644.56;;;0.52;93.55
82986;BME280;72786;53.546;9.910;2024-01-11T07:11:01;102586.13;;;0.19;93.70
82986;BME280;72786;53.546;9.910;2024-01-11T07:13:30;102638.72;;;0.42;93.77
82986;BME280;72786;53.546;9.910;2024-01-11T07:16:00;102656.31;;;0.57;93.71
82986;BME280;72786;53.546;9.910;2024-01-11T07:18:26;102610.84;;;0.11;94.33
82986;BME280;72786;53.546;9.910;2024-01-11T07:20:56;102653.00;;;0.47;94.14
82986;BME280;72786;53.546;9.910;2024-01-11T07:23:22;102671.28;;;0.61;93.92
82986;BME280;72786;53.546;9.910;2024-01-11T07:25:49;102687.22;;;0.71;93.92
82986;BME280;72786;53.546;9.910;2024-01-11T07:28:15;102632.78;;;0.47;93.19
82986;BME280;72786;53.546;9.910;2024-01-11T07:30:43;102659.31;;;0.60;93.73
82986;BME280;72786;53.546;9.910;2024-01-11T07:33:10;102668.38;;;0.69;93.88
82986;BME280;72786;53.546;9.910;2024-01-11T07:35:37;102640.66;;;0.54;94.18
82986;BME280;72786;53.546;9.910;2024-01-11T07:38:03;102663.81;;;0.72;94.36
82986;BME280;72786;53.546;9.910;2024-01-11T07:40:30;102614.44;;;0.48;93.93
82986;BME280;72786;53.546;9.910;2024-01-11T07:43:00;102700.44;;;0.85;93.83
82986;BME280;72786;53.546;9.910;2024-01-11T07:45:26;102673.91;;;0.72;93.91
82986;BME280;72786;53.546;9.910;2024-01-11T07:47:53;102574.56;;;0.31;93.59
82986;BME280;72786;53.546;9.910;2024-01-11T07:50:19;102667.81;;;0.81;94.02
82986;BME280;72786;53.546;9.910;2024-01-11T07:52:46;102622.75;;;0.53;93.85
82986;BME280;72786;53.546;9.910;2024-01-11T07:55:12;102677.91;;;0.81;93.77
82986;BME280;72786;53.546;9.910;2024-01-11T07:57:40;102612.13;;;0.50;93.61
82986;BME280;72786;53.546;9.910;2024-01-11T08:00:08;102692.03;;;0.95;93.50
82986;BME280;72786;53.546;9.910;2024-01-11T08:02:38;102687.66;;;0.94;93.31
82986;BME280;72786;53.546;9.910;2024-01-11T08:05:06;102678.69;;;0.91;93.68
82986;BME280;72786;53.546;9.910;2024-01-11T08:07:32;102700.75;;;0.92;93.72
82986;BME280;72786;53.546;9.910;2024-01-11T08:09:59;102665.75;;;0.84;93.56
82986;BME280;72786;53.546;9.910;2024-01-11T08:12:25;102671.25;;;0.81;93.53
82986;BME280;72786;53.546;9.910;2024-01-11T08:14:52;102683.50;;;0.89;93.55
82986;BME280;72786;53.546;9.910;2024-01-11T08:17:19;102622.88;;;0.69;93.31
82986;BME280;72786;53.546;9.910;2024-01-11T08:19:45;102676.44;;;0.98;93.48
82986;BME280;72786;53.546;9.910;2024-01-11T08:22:12;102609.63;;;0.75;93.12
82986;BME280;72786;53.546;9.910;2024-01-11T08:24:38;102644.25;;;0.97;93.16
82986;BME280;72786;53.546;9.910;2024-01-11T08:27:05;102640.59;;;1.00;93.11
82986;BME280;72786;53.546;9.910;2024-01-11T08:29:32;102665.03;;;1.11;93.26
82986;BME280;72786;53.546;9.910;2024-01-11T08:32:00;102653.06;;;1.10;93.52
82986;BME280;72786;53.546;9.910;2024-01-11T08:34:49;102629.13;;;1.02;93.59
82986;BME280;72786;53.546;9.910;2024-01-11T08:37:15;102611.66;;;0.98;93.15
82986;BME280;72786;53.546;9.910;2024-01-11T08:39:42;102660.94;;;1.17;93.42
82986;BME280;72786;53.546;9.910;2024-01-11T08:42:09;102640.25;;;1.14;93.62
82986;BME280;72786;53.546;9.910;2024-01-11T08:44:35;102558.16;;;0.75;93.37
82986;BME280;72786;53.546;9.910;2024-01-11T08:47:02;102636.81;;;1.19;93.13
82986;BME280;72786;53.546;9.910;2024-01-11T08:49:30;102661.53;;;1.31;93.05
82986;BME280;72786;53.546;9.910;2024-01-11T08:51:57;102653.94;;;1.31;93.17
82986;BME280;72786;53.546;9.910;2024-01-11T08:54:23;102615.75;;;0.98;93.44
82986;BME280;72786;53.546;9.910;2024-01-11T08:56:50;102628.78;;;1.16;93.28
82986;BME280;72786;53.546;9.910;2024-01-11T08:59:16;102624.41;;;1.15;93.00
82986;BME280;72786;53.546;9.910;2024-01-11T09:01:43;102639.59;;;1.20;93.38
82986;BME280;72786;53.546;9.910;2024-01-11T09:04:22;102628.06;;;1.17;93.33
82986;BME280;72786;53.546;9.910;2024-01-11T09:06:49;102602.06;;;1.07;93.17
82986;BME280;72786;53.546;9.910;2024-01-11T09:09:15;102635.28;;;1.30;93.45
82986;BME280;72786;53.546;9.910;2024-01-11T09:11:43;102625.22;;;1.36;93.10
82986;BME280;72786;53.546;9.910;2024-01-11T09:14:10;102571.72;;;1.07;93.03
82986;BME280;72786;53.546;9.910;2024-01-11T09:16:37;102632.13;;;1.42;92.83
82986;BME280;72786;53.546;9.910;2024-01-11T09:19:06;102647.59;;;1.49;92.98
82986;BME280;72786;53.546;9.910;2024-01-11T09:21:32;102639.78;;;1.48;92.88
82986;BME280;72786;53.546;9.910;2024-01-11T09:23:59;102587.47;;;1.32;92.49
82986;BME280;72786;53.546;9.910;2024-01-11T09:26:25;102538.84;;;1.07;92.28
82986;BME280;72786;53.546;9.910;2024-01-11T09:28:52;102575.47;;;1.20;92.59
82986;BME280;72786;53.546;9.910;2024-01-11T09:31:18;102588.78;;;1.19;92.58
82986;BME280;72786;53.546;9.910;2024-01-11T09:33:45;102583.69;;;1.13;93.04
82986;BME280;72786;53.546;9.910;2024-01-11T09:36:13;102632.13;;;1.42;92.86
82986;BME280;72786;53.546;9.910;2024-01-11T09:38:39;102611.34;;;1.23;92.73
82986;BME280;72786;53.546;9.910;2024-01-11T09:41:07;102571.66;;;1.01;92.67
82986;BME280;72786;53.546;9.910;2024-01-11T09:43:37;102639.78;;;1.48;92.80
82986;BME280;72786;53.546;9.910;2024-01-11T09:46:05;102603.13;;;1.35;92.77
82986;BME280;72786;53.546;9.910;2024-01-11T09:48:33;102639.78;;;1.48;92.64
82986;BME280;72786;53.546;9.910;2024-01-11T09:51:04;102551.94;;;1.10;92.41
82986;BME280;72786;53.546;9.910;2024-01-11T09:53:32;102570.91;;;1.23;92.11
82986;BME280;72786;53.546;9.910;2024-01-11T09:56:00;102628.56;;;1.56;92.43
82986;BME280;72786;53.546;9.910;2024-01-11T09:58:26;102588.44;;;1.38;92.19
82986;BME280;72786;53.546;9.910;2024-01-11T10:00:54;102608.72;;;1.48;92.41
82986;BME280;72786;53.546;9.910;2024-01-11T10:03:25;102566.28;;;1.26;92.21
82986;BME280;72786;53.546;9.910;2024-01-11T10:05:57;102604.63;;;1.54;92.31
82986;BME280;72786;53.546;9.910;2024-01-11T10:08:24;102620.75;;;1.60;92.16
82986;BME280;72786;53.546;9.910;2024-01-11T10:10:52;102608.72;;;1.48;92.00
82986;BME280;72786;53.546;9.910;2024-01-11T10:13:26;102612.44;;;1.50;92.19
82986;BME280;72786;53.546;9.910;2024-01-11T10:16:05;102620.22;;;1.47;91.63
82986;BME280;72786;53.546;9.910;2024-01-11T10:18:31;102567.47;;;1.28;92.23
82986;BME280;72786;53.546;9.910;2024-01-11T10:20:58;102619.38;;;1.62;91.92
82986;BME280;72786;53.546;9.910;2024-01-11T10:23:25;102593.06;;;1.46;91.59
82986;BME280;72786;53.546;9.910;2024-01-11T10:25:51;102591.78;;;1.58;91.57
82986;BME280;72786;53.546;9.910;2024-01-11T10:28:18;102598.22;;;1.67;91.39
82986;BME280;72786;53.546;9.910;2024-01-11T10:30:47;102591.28;;;1.55;91.65
82986;BME280;72786;53.546;9.910;2024-01-11T10:33:14;102593.59;;;1.59;91.94
82986;BME280;72786;53.546;9.910;2024-01-11T10:35:41;102550.69;;;1.34;91.81
82986;BME280;72786;53.546;9.910;2024-01-11T10:38:09;102542.66;;;1.31;92.08
82986;BME280;72786;53.546;9.910;2024-01-11T10:40:36;102526.78;;;1.26;91.72
82986;BME280;72786;53.546;9.910;2024-01-11T10:43:05;102535.75;;;1.30;91.67
82986;BME280;72786;53.546;9.910;2024-01-11T10:45:37;102568.72;;;1.46;91.63
82986;BME280;72786;53.546;9.910;2024-01-11T10:48:13;102561.56;;;1.44;91.65
82986;BME280;72786;53.546;9.910;2024-01-11T10:50:44;102627.69;;;1.67;91.62
82986;BME280;72786;53.546;9.910;2024-01-11T10:53:36;102629.00;;;1.59;91.96
82986;BME280;72786;53.546;9.910;2024-01-11T10:55:59;102641.47;;;1.63;91.50
82986;BME280;72786;53.546;9.910;2024-01-11T10:58:26;102622.97;;;1.43;92.48
82986;BME280;72786;53.546;9.910;2024-01-11T11:00:54;102597.31;;;1.25;92.35
82986;BME280;72786;53.546;9.910;2024-01-11T11:03:23;102642.38;;;1.58;92.79
82986;BME280;72786;53.546;9.910;2024-01-11T11:05:53;102625.09;;;1.50;93.14
82986;BME280;72786;53.546;9.910;2024-01-11T11:08:19;102630.00;;;1.65;92.80
82986;BME280;72786;53.546;9.910;2024-01-11T11:10:48;102576.47;;;1.37;92.72
82986;BME280;72786;53.546;9.910;2024-01-11T11:13:15;102650.75;;;1.79;92.47
82986;BME280;72786;53.546;9.910;2024-01-11T11:15:45;102648.00;;;1.83;92.53
82986;BME280;72786;53.546;9.910;2024-01-11T11:18:13;102644.31;;;1.81;91.87
82986;BME280;72786;53.546;9.910;2024-01-11T11:20:40;102613.63;;;1.63;92.26
82986;BME280;72786;53.546;9.910;2024-01-11T11:23:11;102578.44;;;1.65;91.98
82986;BME280;72786;53.546;9.910;2024-01-11T11:25:41;102621.34;;;1.96;91.86
82986;BME280;72786;53.546;9.910;2024-01-11T11:28:11;102604.56;;;2.02;91.70
82986;BME280;72786;53.546;9.910;2024-01-11T11:30:38;102604.31;;;1.95;91.78
82986;BME280;72786;53.546;9.910;2024-01-11T11:33:19;102595.78;;;1.89;92.01
82986;BME280;72786;53.546;9.910;2024-01-11T11:35:47;102609.63;;;2.02;92.15
82986;BME280;72786;53.546;9.910;2024-01-11T11:38:27;102572.50;;;1.75;91.85
82986;BME280;72786;53.546;9.910;2024-01-11T11:40:57;102606.88;;;2.01;91.74
82986;BME280;72786;53.546;9.910;2024-01-11T11:43:26;102601.09;;;1.96;91.65
82986;BME280;72786;53.546;9.910;2024-01-11T11:45:54;102598.38;;;2.00;91.49
82986;BME280;72786;53.546;9.910;2024-01-11T11:51:08;102604.81;;;2.09;91.70
82986;BME280;72786;53.546;9.910;2024-01-11T11:53:39;102611.72;;;2.10;92.02
82986;BME280;72786;53.546;9.910;2024-01-11T11:56:07;102599.06;;;2.05;92.01
82986;BME280;72786;53.546;9.910;2024-01-11T11:58:36;102597.00;;;2.13;91.61
82986;BME280;72786;53.546;9.910;2024-01-11T12:01:03;102603.22;;;2.21;91.93
82986;BME280;72786;53.546;9.910;2024-01-11T12:03:35;102565.22;;;2.04;92.21
82986;BME280;72786;53.546;9.910;2024-01-11T12:06:06;102542.59;;;1.84;92.18
82986;BME280;72786;53.546;9.910;2024-01-11T12:08:35;102596.09;;;2.18;91.87
82986;BME280;72786;53.546;9.910;2024-01-11T12:11:02;102595.19;;;2.18;92.46
82986;BME280;72786;53.546;9.910;2024-01-11T12:13:29;102589.19;;;2.17;92.53
82986;BME280;72786;53.546;9.910;2024-01-11T12:15:57;102581.81;;;2.24;92.38
82986;BME280;72786;53.546;9.910;2024-01-11T12:18:23;102573.53;;;2.25;92.31
82986;BME280;72786;53.546;9.910;2024-01-11T12:20:50;102572.59;;;2.19;92.33
82986;BME280;72786;53.546;9.910;2024-01-11T12:23:19;102535.25;;;1.96;92.68
82986;BME280;72786;53.546;9.910;2024-01-11T12:25:46;102545.44;;;2.18;92.32
82986;BME280;72786;53.546;9.910;2024-01-11T12:28:13;102508.56;;;1.98;92.23
82986;BME280;72786;53.546;9.910;2024-01-11T12:30:40;102562.94;;;2.33;92.82
82986;BME280;72786;53.546;9.910;2024-01-11T12:33:07;102445.94;;;1.75;91.98
82986;BME280;72786;53.546;9.910;2024-01-11T12:35:35;102538.53;;;2.33;91.96
82986;BME280;72786;53.546;9.910;2024-01-11T12:38:04;102527.94;;;2.25;92.21
82986;BME280;72786;53.546;9.910;2024-01-11T12:40:36;102537.63;;;2.33;91.99
82986;BME280;72786;53.546;9.910;2024-01-11T12:43:07;102545.91;;;2.37;92.54
82986;BME280;72786;53.546;9.910;2024-01-11T12:45:35;102547.28;;;2.30;92.15
82986;BME280;72786;53.546;9.910;2024-01-11T12:48:03;102512.28;;;2.11;92.60
82986;BME280;72786;53.546;9.910;2024-01-11T12:50:30;102511.81;;;2.14;92.64
82986;BME280;72786;53.546;9.910;2024-01-11T12:53:05;102567.59;;;2.46;92.57
82986;BME280;72786;53.546;9.910;2024-01-11T12:55:31;102509.03;;;2.23;92.55
82986;BME280;72786;53.546;9.910;2024-01-11T12:58:13;102551.66;;;2.53;92.64
82986;BME280;72786;53.546;9.910;2024-01-11T13:00:45;102502.84;;;2.32;92.59
82986;BME280;72786;53.546;9.910;2024-01-11T13:03:12;102537.16;;;2.52;92.67